sensor_id;sensor_type;location;lat;lon;timestamp;temperature;humidity
12329;DHT22;6230;52.390;10.256;2023-08-30T00:00:08;20.20;55.20
12329;DHT22;6230;52.390;10.256;2023-08-30T00:02:33;20.20;55.20
12329;DHT22;6230;52.390;10.256;2023-08-30T00:04:59;20.20;55.20
12329;DHT22;6230;52.390;10.256;2023-08-30T00:07:26;20.20;55.80
12329;DHT22;6230;52.390;10.256;2023-08-30T00:09:52;20.00;55.30
12329;DHT22;6230;52.390;10.256;2023-08-30T00:12:17;20.00;55.30
12329;DHT22;6230;52.390;10.256;2023-08-30T00:14:43;20.00;55.30
12329;DHT22;6230;52.390;10.256;2023-08-30T00:17:09;19.90;55.30
12329;DHT22;6230;52.390;10.256;2023-08-30T00:19:34;19.80;55.40
12329;DHT22;6230;52.390;10.256;2023-08-30T00:22:00;19.70;55.40
12329;DHT22;6230;52.390;10.256;2023-08-30T00:24:26;19.70;55.60
12329;DHT22;6230;52.390;10.256;2023-08-30T00:26:51;19.60;55.60
12329;DHT22;6230;52.390;10.256;2023-08-30T00:29:17;19.50;55.60
12329;DHT22;6230;52.390;10.256;2023-08-30T00:31:42;19.40;55.60
12329;DHT22;6230;52.390;10.256;2023-08-30T00:34:08;19.40;55.70
12329;DHT22;6230;52.390;10.256;2023-08-30T00:36:34;19.30;55.70
12329;DHT22;6230;52.390;10.256;2023-08-30T00:39:00;19.20;56.40
12329;DHT22;6230;52.390;10.256;2023-08-30T00:41:25;19.20;55.80
12329;DHT22;6230;52.390;10.256;2023-08-30T00:43:51;19.20;55.80
12329;DHT22;6230;52.390;10.256;2023-08-30T00:46:16;19.20;56.10
12329;DHT22;6230;52.390;10.256;2023-08-30T00:48:43;19.10;55.90
12329;DHT22;6230;52.390;10.256;2023-08-30T00:51:09;19.10;55.90
12329;DHT22;6230;52.390;10.256;2023-08-30T00:53:35;19.10;55.80
12329;DHT22;6230;52.390;10.256;2023-08-30T00:56:01;19.10;55.90
12329;DHT22;6230;52.390;10.256;2023-08-30T00:58:27;19.00;55.90
12329;DHT22;6230;52.390;10.256;2023-08-30T01:00:53;19.00;55.90
12329;DHT22;6230;52.390;10.256;2023-08-30T01:03:19;19.00;56.00
12329;DHT22;6230;52.390;10.256;2023-08-30T01:05:47;18.90;56.00
12329;DHT22;6230;52.390;10.256;2023-08-30T01:08:12;18.90;56.00
12329;DHT22;6230;52.390;10.256;2023-08-30T01:10:47;18.90;56.10
12329;DHT22;6230;52.390;10.256;2023-08-30T01:13:18;18.80;56.10
12329;DHT22;6230;52.390;10.256;2023-08-30T01:15:50;18.80;56.10
12329;DHT22;6230;52.390;10.256;2023-08-30T01:18:20;18.80;56.10
12329;DHT22;6230;52.390;10.256;2023-08-30T01:20:47;18.80;56.10
12329;DHT22;6230;52.390;10.256;2023-08-30T01:23:19;18.80;56.00
12329;DHT22;6230;52.390;10.256;2023-08-30T01:28:30;18.80;56.00
12329;DHT22;6230;52.390;10.256;2023-08-30T01:30:57;18.80;56.00
12329;DHT22;6230;52.390;10.256;2023-08-30T01:33:24;18.80;56.00
12329;DHT22;6230;52.390;10.256;2023-08-30T01:35:54;18.80;56.00
12329;DHT22;6230;52.390;10.256;2023-08-30T01:38:21;18.70;56.00
12329;DHT22;6230;52.390;10.256;2023-08-30T01:40:47;18.70;56.10
12329;DHT22;6230;52.390;10.256;2023-08-30T01:43:14;18.60;56.00
12329;DHT22;6230;52.390;10.256;2023-08-30T01:45:42;18.50;56.10
12329;DHT22;6230;52.390;10.256;2023-08-30T01:48:13;18.50;56.20
12329;DHT22;6230;52.390;10.256;2023-08-30T01:50:41;18.50;56.20
12329;DHT22;6230;52.390;10.256;2023-08-30T01:53:08;18.50;56.20
12329;DHT22;6230;52.390;10.256;2023-08-30T01:55:35;18.50;56.20
12329;DHT22;6230;52.390;10.256;2023-08-30T01:58:02;18.40;56.20
12329;DHT22;6230;52.390;10.256;2023-08-30T02:00:28;18.40;56.30
12329;DHT22;6230;52.390;10.256;2023-08-30T02:02:54;18.30;56.30
12329;DHT22;6230;52.390;10.256;2023-08-30T02:05:19;18.40;56.30
12329;DHT22;6230;52.390;10.256;2023-08-30T02:07:54;18.30;56.30
12329;DHT22;6230;52.390;10.256;2023-08-30T02:10:28;18.30;56.30
12329;DHT22;6230;52.390;10.256;2023-08-30T02:12:57;18.30;56.30
12329;DHT22;6230;52.390;10.256;2023-08-30T02:15:25;18.30;56.20
12329;DHT22;6230;52.390;10.256;2023-08-30T02:17:52;18.30;56.20
12329;DHT22;6230;52.390;10.256;2023-08-30T02:20:18;18.30;56.20
12329;DHT22;6230;52.390;10.256;2023-08-30T02:22:44;18.30;56.30
12329;DHT22;6230;52.390;10.256;2023-08-30T02:25:09;18.30;56.30
12329;DHT22;6230;52.390;10.256;2023-08-30T02:27:35;18.20;56.20
12329;DHT22;6230;52.390;10.256;2023-08-30T02:30:02;18.20;56.30
12329;DHT22;6230;52.390;10.256;2023-08-30T02:32:28;18.20;56.40
12329;DHT22;6230;52.390;10.256;2023-08-30T02:34:53;18.10;56.40
12329;DHT22;6230;52.390;10.256;2023-08-30T02:37:19;18.00;56.50
12329;DHT22;6230;52.390;10.256;2023-08-30T02:39:45;18.00;56.50
12329;DHT22;6230;52.390;10.256;2023-08-30T02:42:10;18.00;56.60
12329;DHT22;6230;52.390;10.256;2023-08-30T02:44:36;17.90;56.50
12329;DHT22;6230;52.390;10.256;2023-08-30T02:47:02;18.00;56.60
12329;DHT22;6230;52.390;10.256;2023-08-30T02:49:27;17.90;56.50
12329;DHT22;6230;52.390;10.256;2023-08-30T02:51:53;17.90;56.50
12329;DHT22;6230;52.390;10.256;2023-08-30T02:54:18;17.90;56.50
12329;DHT22;6230;52.390;10.256;2023-08-30T02:56:44;17.90;56.50
12329;DHT22;6230;52.390;10.256;2023-08-30T02:59:10;17.80;56.60
12329;DHT22;6230;52.390;10.256;2023-08-30T03:01:37;17.80;56.60
12329;DHT22;6230;52.390;10.256;2023-08-30T03:04:05;17.70;56.60
12329;DHT22;6230;52.390;10.256;2023-08-30T03:06:32;17.70;56.70
12329;DHT22;6230;52.390;10.256;2023-08-30T03:08:58;17.70;56.70
12329;DHT22;6230;52.390;10.256;2023-08-30T03:11:23;17.60;56.70
12329;DHT22;6230;52.390;10.256;2023-08-30T03:13:49;17.60;56.80
12329;DHT22;6230;52.390;10.256;2023-08-30T03:16:16;17.60;57.50
12329;DHT22;6230;52.390;10.256;2023-08-30T03:18:43;17.50;56.80
12329;DHT22;6230;52.390;10.256;2023-08-30T03:21:09;17.50;56.90
12329;DHT22;6230;52.390;10.256;2023-08-30T03:23:35;17.50;56.90
12329;DHT22;6230;52.390;10.256;2023-08-30T03:26:11;17.50;57.00
12329;DHT22;6230;52.390;10.256;2023-08-30T03:28:38;17.50;57.60
12329;DHT22;6230;52.390;10.256;2023-08-30T03:31:19;17.50;56.90
12329;DHT22;6230;52.390;10.256;2023-08-30T03:33:46;17.50;56.90
12329;DHT22;6230;52.390;10.256;2023-08-30T03:36:13;17.50;56.90
12329;DHT22;6230;52.390;10.256;2023-08-30T03:38:39;17.40;56.90
12329;DHT22;6230;52.390;10.256;2023-08-30T03:41:05;17.40;56.90
12329;DHT22;6230;52.390;10.256;2023-08-30T03:43:33;17.40;56.90
12329;DHT22;6230;52.390;10.256;2023-08-30T03:46:00;17.40;57.00
12329;DHT22;6230;52.390;10.256;2023-08-30T03:48:27;17.40;57.00
12329;DHT22;6230;52.390;10.256;2023-08-30T03:50:52;17.40;57.00
12329;DHT22;6230;52.390;10.256;2023-08-30T03:53:18;17.40;57.00
12329;DHT22;6230;52.390;10.256;2023-08-30T03:55:44;17.40;57.00
12329;DHT22;6230;52.390;10.256;2023-08-30T03:58:09;17.40;57.00
12329;DHT22;6230;52.390;10.256;2023-08-30T04:00:39;17.40;57.00
12329;DHT22;6230;52.390;10.256;2023-08-30T04:03:09;17.40;56.90
12329;DHT22;6230;52.390;10.256;2023-08-30T04:05:35;17.50;56.80
12329;DHT22;6230;52.390;10.256;2023-08-30T04:08:02;17.60;56.80
12329;DHT22;6230;52.390;10.256;2023-08-30T04:10:28;17.50;56.70
12329;DHT22;6230;52.390;10.256;2023-08-30T04:12:53;17.60;56.70
12329;DHT22;6230;52.390;10.256;2023-08-30T04:15:19;17.50;56.70
12329;DHT22;6230;52.390;10.256;2023-08-30T04:17:45;17.50;56.70
12329;DHT22;6230;52.390;10.256;2023-08-30T04:20:10;17.50;56.70
12329;DHT22;6230;52.390;10.256;2023-08-30T04:22:36;17.50;56.70
12329;DHT22;6230;52.390;10.256;2023-08-30T04:25:02;17.50;56.70
12329;DHT22;6230;52.390;10.256;2023-08-30T04:27:28;17.50;56.70
12329;DHT22;6230;52.390;10.256;2023-08-30T04:29:54;17.50;56.70
12329;DHT22;6230;52.390;10.256;2023-08-30T04:32:19;17.40;56.70
12329;DHT22;6230;52.390;10.256;2023-08-30T04:34:45;17.40;56.80
12329;DHT22;6230;52.390;10.256;2023-08-30T04:37:10;17.40;56.80
12329;DHT22;6230;52.390;10.256;2023-08-30T04:39:36;17.30;56.90
12329;DHT22;6230;52.390;10.256;2023-08-30T04:42:01;17.30;57.10
12329;DHT22;6230;52.390;10.256;2023-08-30T04:44:28;17.20;57.20
12329;DHT22;6230;52.390;10.256;2023-08-30T04:46:54;17.10;57.30
12329;DHT22;6230;52.390;10.256;2023-08-30T04:49:20;17.10;57.40
12329;DHT22;6230;52.390;10.256;2023-08-30T04:51:46;17.10;57.40
12329;DHT22;6230;52.390;10.256;2023-08-30T04:54:11;17.00;57.50
12329;DHT22;6230;52.390;10.256;2023-08-30T04:56:37;17.00;57.50
12329;DHT22;6230;52.390;10.256;2023-08-30T04:59:02;17.00;57.50
12329;DHT22;6230;52.390;10.256;2023-08-30T05:01:30;17.00;57.60
12329;DHT22;6230;52.390;10.256;2023-08-30T05:03:55;17.10;57.60
12329;DHT22;6230;52.390;10.256;2023-08-30T05:06:21;17.00;57.50
12329;DHT22;6230;52.390;10.256;2023-08-30T05:08:47;17.00;57.50
12329;DHT22;6230;52.390;10.256;2023-08-30T05:11:12;17.00;57.50
12329;DHT22;6230;52.390;10.256;2023-08-30T05:13:38;17.10;57.60
12329;DHT22;6230;52.390;10.256;2023-08-30T05:16:04;17.10;57.50
12329;DHT22;6230;52.390;10.256;2023-08-30T05:18:30;17.10;58.10
12329;DHT22;6230;52.390;10.256;2023-08-30T05:20:55;17.10;57.50
12329;DHT22;6230;52.390;10.256;2023-08-30T05:23:21;17.10;57.50
12329;DHT22;6230;52.390;10.256;2023-08-30T05:25:47;17.20;57.60
12329;DHT22;6230;52.390;10.256;2023-08-30T05:28:12;17.20;57.50
12329;DHT22;6230;52.390;10.256;2023-08-30T05:30:41;17.20;57.50
12329;DHT22;6230;52.390;10.256;2023-08-30T05:33:06;17.20;57.50
12329;DHT22;6230;52.390;10.256;2023-08-30T05:35:32;17.20;57.50
12329;DHT22;6230;52.390;10.256;2023-08-30T05:37:58;17.30;57.50
12329;DHT22;6230;52.390;10.256;2023-08-30T05:40:23;17.40;57.50
12329;DHT22;6230;52.390;10.256;2023-08-30T05:42:49;17.40;57.50
12329;DHT22;6230;52.390;10.256;2023-08-30T05:45:15;17.40;57.50
12329;DHT22;6230;52.390;10.256;2023-08-30T05:47:41;17.50;57.50
12329;DHT22;6230;52.390;10.256;2023-08-30T05:50:07;17.50;57.50
12329;DHT22;6230;52.390;10.256;2023-08-30T05:52:33;17.50;57.60
12329;DHT22;6230;52.390;10.256;2023-08-30T05:54:59;17.50;57.60
12329;DHT22;6230;52.390;10.256;2023-08-30T05:57:24;17.50;57.60
12329;DHT22;6230;52.390;10.256;2023-08-30T05:59:51;17.50;57.90
12329;DHT22;6230;52.390;10.256;2023-08-30T06:02:16;17.50;57.90
12329;DHT22;6230;52.390;10.256;2023-08-30T06:04:42;17.50;57.90
12329;DHT22;6230;52.390;10.256;2023-08-30T06:07:07;17.50;57.90
12329;DHT22;6230;52.390;10.256;2023-08-30T06:09:33;17.60;58.00
12329;DHT22;6230;52.390;10.256;2023-08-30T06:11:59;17.60;58.00
12329;DHT22;6230;52.390;10.256;2023-08-30T06:14:25;17.60;58.00
12329;DHT22;6230;52.390;10.256;2023-08-30T06:16:50;17.70;58.10
12329;DHT22;6230;52.390;10.256;2023-08-30T06:19:16;17.70;58.10
12329;DHT22;6230;52.390;10.256;2023-08-30T06:21:41;17.70;58.10
12329;DHT22;6230;52.390;10.256;2023-08-30T06:24:07;17.80;58.10
12329;DHT22;6230;52.390;10.256;2023-08-30T06:26:33;17.80;58.10
12329;DHT22;6230;52.390;10.256;2023-08-30T06:28:59;17.80;58.10
12329;DHT22;6230;52.390;10.256;2023-08-30T06:31:25;17.90;58.10
12329;DHT22;6230;52.390;10.256;2023-08-30T06:33:51;17.90;58.10
12329;DHT22;6230;52.390;10.256;2023-08-30T06:36:17;17.90;58.00
12329;DHT22;6230;52.390;10.256;2023-08-30T06:38:43;18.00;58.00
12329;DHT22;6230;52.390;10.256;2023-08-30T06:41:09;18.00;58.00
12329;DHT22;6230;52.390;10.256;2023-08-30T06:43:34;18.10;58.00
12329;DHT22;6230;52.390;10.256;2023-08-30T06:46:00;18.10;58.00
12329;DHT22;6230;52.390;10.256;2023-08-30T06:48:26;18.20;58.00
12329;DHT22;6230;52.390;10.256;2023-08-30T06:50:51;18.30;58.00
12329;DHT22;6230;52.390;10.256;2023-08-30T06:53:17;18.30;58.00
12329;DHT22;6230;52.390;10.256;2023-08-30T06:55:42;18.40;58.00
12329;DHT22;6230;52.390;10.256;2023-08-30T06:58:08;18.40;58.00
12329;DHT22;6230;52.390;10.256;2023-08-30T07:00:33;18.50;58.10
12329;DHT22;6230;52.390;10.256;2023-08-30T07:02:59;18.50;58.10
12329;DHT22;6230;52.390;10.256;2023-08-30T07:05:25;18.60;58.10
12329;DHT22;6230;52.390;10.256;2023-08-30T07:07:50;18.60;58.20
12329;DHT22;6230;52.390;10.256;2023-08-30T07:10:16;18.60;58.20
12329;DHT22;6230;52.390;10.256;2023-08-30T07:12:41;18.70;58.30
12329;DHT22;6230;52.390;10.256;2023-08-30T07:15:07;18.70;58.30
12329;DHT22;6230;52.390;10.256;2023-08-30T07:17:33;18.80;58.30
12329;DHT22;6230;52.390;10.256;2023-08-30T07:19:59;18.80;58.30
12329;DHT22;6230;52.390;10.256;2023-08-30T07:22:24;18.90;58.40
12329;DHT22;6230;52.390;10.256;2023-08-30T07:24:50;18.90;58.40
12329;DHT22;6230;52.390;10.256;2023-08-30T07:27:16;19.00;58.40
12329;DHT22;6230;52.390;10.256;2023-08-30T07:29:42;19.10;58.40
12329;DHT22;6230;52.390;10.256;2023-08-30T07:32:09;19.10;58.40
12329;DHT22;6230;52.390;10.256;2023-08-30T07:34:35;19.20;58.40
12329;DHT22;6230;52.390;10.256;2023-08-30T07:37:00;19.20;58.40
12329;DHT22;6230;52.390;10.256;2023-08-30T07:39:26;19.30;58.40
12329;DHT22;6230;52.390;10.256;2023-08-30T07:41:52;19.40;58.30
12329;DHT22;6230;52.390;10.256;2023-08-30T07:44:17;19.50;58.30
12329;DHT22;6230;52.390;10.256;2023-08-30T07:46:45;19.60;58.30
12329;DHT22;6230;52.390;10.256;2023-08-30T07:49:10;19.70;58.30
12329;DHT22;6230;52.390;10.256;2023-08-30T07:51:36;19.70;58.30
12329;DHT22;6230;52.390;10.256;2023-08-30T07:54:01;19.80;58.40
12329;DHT22;6230;52.390;10.256;2023-08-30T07:56:27;19.90;58.30
12329;DHT22;6230;52.390;10.256;2023-08-30T07:58:54;20.00;58.40
12329;DHT22;6230;52.390;10.256;2023-08-30T08:01:20;20.10;58.20
12329;DHT22;6230;52.390;10.256;2023-08-30T08:03:45;20.10;58.20
12329;DHT22;6230;52.390;10.256;2023-08-30T08:06:11;20.20;58.20
12329;DHT22;6230;52.390;10.256;2023-08-30T08:08:36;20.30;58.20
12329;DHT22;6230;52.390;10.256;2023-08-30T08:11:02;20.30;58.20
12329;DHT22;6230;52.390;10.256;2023-08-30T08:13:29;20.30;58.20
12329;DHT22;6230;52.390;10.256;2023-08-30T08:15:56;20.40;58.20
12329;DHT22;6230;52.390;10.256;2023-08-30T08:18:22;20.40;58.80
12329;DHT22;6230;52.390;10.256;2023-08-30T08:20:48;20.50;58.20
12329;DHT22;6230;52.390;10.256;2023-08-30T08:23:13;20.50;58.10
12329;DHT22;6230;52.390;10.256;2023-08-30T08:25:39;20.60;58.10
12329;DHT22;6230;52.390;10.256;2023-08-30T08:28:07;20.70;58.10
12329;DHT22;6230;52.390;10.256;2023-08-30T08:30:33;20.80;58.10
12329;DHT22;6230;52.390;10.256;2023-08-30T08:32:58;20.90;58.00
12329;DHT22;6230;52.390;10.256;2023-08-30T08:35:25;20.90;57.90
12329;DHT22;6230;52.390;10.256;2023-08-30T08:37:50;21.00;57.90
12329;DHT22;6230;52.390;10.256;2023-08-30T08:40:16;21.10;57.90
12329;DHT22;6230;52.390;10.256;2023-08-30T08:42:42;21.10;57.90
12329;DHT22;6230;52.390;10.256;2023-08-30T08:45:10;21.20;57.90
12329;DHT22;6230;52.390;10.256;2023-08-30T08:47:36;21.20;57.80
12329;DHT22;6230;52.390;10.256;2023-08-30T08:50:01;21.30;57.80
12329;DHT22;6230;52.390;10.256;2023-08-30T08:52:29;21.40;57.80
12329;DHT22;6230;52.390;10.256;2023-08-30T08:54:54;21.40;57.80
12329;DHT22;6230;52.390;10.256;2023-08-30T08:57:21;21.50;57.80
12329;DHT22;6230;52.390;10.256;2023-08-30T08:59:46;21.60;57.70
12329;DHT22;6230;52.390;10.256;2023-08-30T09:02:14;21.70;57.70
12329;DHT22;6230;52.390;10.256;2023-08-30T09:04:40;21.70;57.60
12329;DHT22;6230;52.390;10.256;2023-08-30T09:07:06;21.80;57.60
12329;DHT22;6230;52.390;10.256;2023-08-30T09:09:33;21.90;57.50
12329;DHT22;6230;52.390;10.256;2023-08-30T09:11:59;21.90;57.50
12329;DHT22;6230;52.390;10.256;2023-08-30T09:14:25;22.00;57.50
12329;DHT22;6230;52.390;10.256;2023-08-30T09:16:55;22.10;57.50
12329;DHT22;6230;52.390;10.256;2023-08-30T09:19:21;22.10;57.40
12329;DHT22;6230;52.390;10.256;2023-08-30T09:21:54;22.20;57.40
12329;DHT22;6230;52.390;10.256;2023-08-30T09:24:20;22.30;57.30
12329;DHT22;6230;52.390;10.256;2023-08-30T09:26:50;22.40;57.40
12329;DHT22;6230;52.390;10.256;2023-08-30T09:29:17;22.60;57.30
12329;DHT22;6230;52.390;10.256;2023-08-30T09:31:43;22.60;57.10
12329;DHT22;6230;52.390;10.256;2023-08-30T09:34:09;22.70;57.10
12329;DHT22;6230;52.390;10.256;2023-08-30T09:36:37;22.80;57.10
12329;DHT22;6230;52.390;10.256;2023-08-30T09:39:13;22.90;57.00
12329;DHT22;6230;52.390;10.256;2023-08-30T09:41:43;22.90;56.90
12329;DHT22;6230;52.390;10.256;2023-08-30T09:44:13;22.90;56.80
12329;DHT22;6230;52.390;10.256;2023-08-30T09:46:43;22.90;56.90
12329;DHT22;6230;52.390;10.256;2023-08-30T09:49:12;22.90;56.80
12329;DHT22;6230;52.390;10.256;2023-08-30T09:51:39;22.90;56.80
12329;DHT22;6230;52.390;10.256;2023-08-30T09:54:16;22.90;56.80
12329;DHT22;6230;52.390;10.256;2023-08-30T09:56:43;22.90;56.90
12329;DHT22;6230;52.390;10.256;2023-08-30T09:59:13;22.90;56.90
12329;DHT22;6230;52.390;10.256;2023-08-30T10:01:41;23.00;56.80
12329;DHT22;6230;52.390;10.256;2023-08-30T10:04:07;23.00;56.70
12329;DHT22;6230;52.390;10.256;2023-08-30T10:06:35;23.10;56.80
12329;DHT22;6230;52.390;10.256;2023-08-30T10:09:02;23.20;56.80
12329;DHT22;6230;52.390;10.256;2023-08-30T10:11:30;23.20;56.60
12329;DHT22;6230;52.390;10.256;2023-08-30T10:13:55;23.30;56.60
12329;DHT22;6230;52.390;10.256;2023-08-30T10:16:24;23.30;56.60
12329;DHT22;6230;52.390;10.256;2023-08-30T10:18:55;23.30;56.60
12329;DHT22;6230;52.390;10.256;2023-08-30T10:21:24;23.40;56.50
12329;DHT22;6230;52.390;10.256;2023-08-30T10:23:51;23.50;56.40
12329;DHT22;6230;52.390;10.256;2023-08-30T10:26:25;23.50;56.40
12329;DHT22;6230;52.390;10.256;2023-08-30T10:28:53;23.50;56.30
12329;DHT22;6230;52.390;10.256;2023-08-30T10:31:20;23.50;56.30
12329;DHT22;6230;52.390;10.256;2023-08-30T10:33:50;23.50;56.30
12329;DHT22;6230;52.390;10.256;2023-08-30T10:36:28;23.60;56.30
12329;DHT22;6230;52.390;10.256;2023-08-30T10:38:54;23.60;56.30
12329;DHT22;6230;52.390;10.256;2023-08-30T10:41:24;23.60;56.20
12329;DHT22;6230;52.390;10.256;2023-08-30T10:44:01;23.60;56.20
12329;DHT22;6230;52.390;10.256;2023-08-30T10:46:34;23.60;56.20
12329;DHT22;6230;52.390;10.256;2023-08-30T10:49:11;23.50;56.20
12329;DHT22;6230;52.390;10.256;2023-08-30T10:51:40;23.60;56.30
12329;DHT22;6230;52.390;10.256;2023-08-30T10:54:12;23.70;56.30
12329;DHT22;6230;52.390;10.256;2023-08-30T10:56:58;23.80;56.20
12329;DHT22;6230;52.390;10.256;2023-08-30T10:59:26;23.90;56.10
12329;DHT22;6230;52.390;10.256;2023-08-30T11:01:52;24.00;55.90
12329;DHT22;6230;52.390;10.256;2023-08-30T11:04:18;24.10;55.90
12329;DHT22;6230;52.390;10.256;2023-08-30T11:06:45;24.20;55.80
12329;DHT22;6230;52.390;10.256;2023-08-30T11:09:19;24.30;55.70
12329;DHT22;6230;52.390;10.256;2023-08-30T11:11:46;24.50;55.70
12329;DHT22;6230;52.390;10.256;2023-08-30T11:14:13;24.60;55.60
12329;DHT22;6230;52.390;10.256;2023-08-30T11:16:39;24.70;55.30
12329;DHT22;6230;52.390;10.256;2023-08-30T11:19:06;24.70;55.00
12329;DHT22;6230;52.390;10.256;2023-08-30T11:21:36;24.80;55.10
12329;DHT22;6230;52.390;10.256;2023-08-30T11:24:03;24.80;55.00
12329;DHT22;6230;52.390;10.256;2023-08-30T11:26:29;24.70;55.00
12329;DHT22;6230;52.390;10.256;2023-08-30T11:28:54;24.60;55.10
12329;DHT22;6230;52.390;10.256;2023-08-30T11:31:22;24.60;55.80
12329;DHT22;6230;52.390;10.256;2023-08-30T11:33:55;24.60;54.80
12329;DHT22;6230;52.390;10.256;2023-08-30T11:36:22;24.70;54.90
12329;DHT22;6230;52.390;10.256;2023-08-30T11:38:54;24.70;54.80
12329;DHT22;6230;52.390;10.256;2023-08-30T11:41:20;24.80;54.90
12329;DHT22;6230;52.390;10.256;2023-08-30T11:43:52;24.90;54.80
12329;DHT22;6230;52.390;10.256;2023-08-30T11:46:19;24.90;54.60
12329;DHT22;6230;52.390;10.256;2023-08-30T11:48:45;24.90;54.50
12329;DHT22;6230;52.390;10.256;2023-08-30T11:51:11;24.90;54.50
12329;DHT22;6230;52.390;10.256;2023-08-30T11:53:38;24.90;54.10
12329;DHT22;6230;52.390;10.256;2023-08-30T11:56:05;24.90;54.10
12329;DHT22;6230;52.390;10.256;2023-08-30T11:58:35;24.80;54.10
12329;DHT22;6230;52.390;10.256;2023-08-30T12:01:02;24.70;53.90
12329;DHT22;6230;52.390;10.256;2023-08-30T12:03:28;24.70;54.00
12329;DHT22;6230;52.390;10.256;2023-08-30T12:05:54;24.60;54.20
12329;DHT22;6230;52.390;10.256;2023-08-30T12:10:45;24.50;54.20
12329;DHT22;6230;52.390;10.256;2023-08-30T12:13:28;24.30;53.90
12329;DHT22;6230;52.390;10.256;2023-08-30T12:15:54;24.20;54.20
12329;DHT22;6230;52.390;10.256;2023-08-30T12:18:28;24.10;54.20
12329;DHT22;6230;52.390;10.256;2023-08-30T12:20:59;24.10;54.30
12329;DHT22;6230;52.390;10.256;2023-08-30T12:23:32;24.00;54.30
12329;DHT22;6230;52.390;10.256;2023-08-30T12:26:06;23.80;54.30
12329;DHT22;6230;52.390;10.256;2023-08-30T12:28:35;23.70;54.40
12329;DHT22;6230;52.390;10.256;2023-08-30T12:31:02;23.60;54.40
12329;DHT22;6230;52.390;10.256;2023-08-30T12:33:29;23.60;54.60
12329;DHT22;6230;52.390;10.256;2023-08-30T12:35:55;23.50;54.50
12329;DHT22;6230;52.390;10.256;2023-08-30T12:38:21;23.40;54.60
12329;DHT22;6230;52.390;10.256;2023-08-30T12:40:50;23.40;54.70
12329;DHT22;6230;52.390;10.256;2023-08-30T12:43:16;23.30;54.70
12329;DHT22;6230;52.390;10.256;2023-08-30T12:45:43;23.30;54.70
12329;DHT22;6230;52.390;10.256;2023-08-30T12:48:10;23.20;54.70
12329;DHT22;6230;52.390;10.256;2023-08-30T12:50:37;23.20;54.90
12329;DHT22;6230;52.390;10.256;2023-08-30T12:53:03;23.20;54.90
12329;DHT22;6230;52.390;10.256;2023-08-30T12:55:29;23.20;54.90
12329;DHT22;6230;52.390;10.256;2023-08-30T12:57:55;23.20;54.90
12329;DHT22;6230;52.390;10.256;2023-08-30T13:00:20;23.20;55.00
12329;DHT22;6230;52.390;10.256;2023-08-30T13:02:46;23.20;55.00
12329;DHT22;6230;52.390;10.256;2023-08-30T13:05:11;23.30;55.10
12329;DHT22;6230;52.390;10.256;2023-08-30T13:07:37;23.30;55.00
12329;DHT22;6230;52.390;10.256;2023-08-30T13:10:03;23.40;55.00
12329;DHT22;6230;52.390;10.256;2023-08-30T13:12:29;23.40;54.80
12329;DHT22;6230;52.390;10.256;2023-08-30T13:14:54;23.40;54.90
12329;DHT22;6230;52.390;10.256;2023-08-30T13:17:20;23.50;54.90
12329;DHT22;6230;52.390;10.256;2023-08-30T13:19:45;23.40;54.90
12329;DHT22;6230;52.390;10.256;2023-08-30T13:22:11;23.40;54.90
12329;DHT22;6230;52.390;10.256;2023-08-30T13:24:37;23.40;54.80
12329;DHT22;6230;52.390;10.256;2023-08-30T13:27:03;23.40;54.90
12329;DHT22;6230;52.390;10.256;2023-08-30T13:29:29;23.40;54.90
12329;DHT22;6230;52.390;10.256;2023-08-30T13:31:55;23.50;55.00
12329;DHT22;6230;52.390;10.256;2023-08-30T13:34:20;23.50;55.00
12329;DHT22;6230;52.390;10.256;2023-08-30T13:36:46;23.60;54.90
12329;DHT22;6230;52.390;10.256;2023-08-30T13:39:12;23.80;55.00
12329;DHT22;6230;52.390;10.256;2023-08-30T13:41:37;23.90;54.90
12329;DHT22;6230;52.390;10.256;2023-08-30T13:44:03;24.10;54.80
12329;DHT22;6230;52.390;10.256;2023-08-30T13:46:29;24.20;54.60
12329;DHT22;6230;52.390;10.256;2023-08-30T13:48:55;24.30;54.30
12329;DHT22;6230;52.390;10.256;2023-08-30T13:51:25;24.50;54.30
12329;DHT22;6230;52.390;10.256;2023-08-30T13:53:51;24.50;54.30
12329;DHT22;6230;52.390;10.256;2023-08-30T13:56:18;24.70;53.90
12329;DHT22;6230;52.390;10.256;2023-08-30T13:58:44;24.70;53.60
12329;DHT22;6230;52.390;10.256;2023-08-30T14:01:10;24.80;53.50
12329;DHT22;6230;52.390;10.256;2023-08-30T14:03:36;24.90;53.60
12329;DHT22;6230;52.390;10.256;2023-08-30T14:06:01;25.00;53.60
12329;DHT22;6230;52.390;10.256;2023-08-30T14:08:27;25.10;53.60
12329;DHT22;6230;52.390;10.256;2023-08-30T14:10:52;25.10;53.10
12329;DHT22;6230;52.390;10.256;2023-08-30T14:13:19;25.20;53.70
12329;DHT22;6230;52.390;10.256;2023-08-30T14:15:45;25.20;53.00
12329;DHT22;6230;52.390;10.256;2023-08-30T14:18:10;25.20;52.90
12329;DHT22;6230;52.390;10.256;2023-08-30T14:20:36;25.30;52.70
12329;DHT22;6230;52.390;10.256;2023-08-30T14:23:02;25.30;52.40
12329;DHT22;6230;52.390;10.256;2023-08-30T14:25:28;25.30;52.50
12329;DHT22;6230;52.390;10.256;2023-08-30T14:27:54;25.30;52.50
12329;DHT22;6230;52.390;10.256;2023-08-30T14:30:20;25.30;52.40
12329;DHT22;6230;52.390;10.256;2023-08-30T14:32:46;25.30;52.50
12329;DHT22;6230;52.390;10.256;2023-08-30T14:35:11;25.20;52.50
12329;DHT22;6230;52.390;10.256;2023-08-30T14:37:37;25.20;52.20
12329;DHT22;6230;52.390;10.256;2023-08-30T14:40:06;25.10;51.70
12329;DHT22;6230;52.390;10.256;2023-08-30T14:42:32;25.00;52.00
12329;DHT22;6230;52.390;10.256;2023-08-30T14:44:58;24.90;52.20
12329;DHT22;6230;52.390;10.256;2023-08-30T14:47:23;24.90;52.10
12329;DHT22;6230;52.390;10.256;2023-08-30T14:49:49;24.80;52.20
12329;DHT22;6230;52.390;10.256;2023-08-30T14:52:15;24.70;52.20
12329;DHT22;6230;52.390;10.256;2023-08-30T14:54:41;24.60;52.30
12329;DHT22;6230;52.390;10.256;2023-08-30T14:57:07;24.50;52.50
12329;DHT22;6230;52.390;10.256;2023-08-30T14:59:33;24.50;52.40
12329;DHT22;6230;52.390;10.256;2023-08-30T15:01:59;24.40;52.50
12329;DHT22;6230;52.390;10.256;2023-08-30T15:04:24;24.30;52.50
12329;DHT22;6230;52.390;10.256;2023-08-30T15:06:50;24.30;52.60
12329;DHT22;6230;52.390;10.256;2023-08-30T15:09:17;24.30;52.60
12329;DHT22;6230;52.390;10.256;2023-08-30T15:11:42;24.20;52.60
12329;DHT22;6230;52.390;10.256;2023-08-30T15:14:08;24.20;52.60
12329;DHT22;6230;52.390;10.256;2023-08-30T15:16:34;24.10;52.60
12329;DHT22;6230;52.390;10.256;2023-08-30T15:19:00;24.10;52.70
12329;DHT22;6230;52.390;10.256;2023-08-30T15:21:25;24.10;52.70
12329;DHT22;6230;52.390;10.256;2023-08-30T15:23:51;24.10;52.60
12329;DHT22;6230;52.390;10.256;2023-08-30T15:26:16;24.10;52.70
12329;DHT22;6230;52.390;10.256;2023-08-30T15:28:43;24.10;52.70
12329;DHT22;6230;52.390;10.256;2023-08-30T15:31:12;24.10;52.70